createdAt,value
2023-02-05T00:00:02.436Z,98.28
2023-02-05T00:01:02.742Z,98.02
2023-02-05T00:02:03.076Z,98.13
2023-02-05T00:03:02.869Z,97.51
2023-02-05T00:04:02.574Z,96.95
2023-02-05T00:05:02.787Z,96.64
2023-02-05T00:06:03.130Z,96.64
2023-02-05T00:07:03.031Z,96.23
2023-02-05T00:08:02.757Z,95.87
2023-02-05T00:09:02.823Z,95.46
2023-02-05T00:10:03.326Z,95.25
2023-02-05T00:11:03.031Z,95.25
2023-02-05T00:12:03.272Z,95.67
2023-02-05T00:13:03.328Z,95.46
2023-02-05T00:14:03.026Z,95.36
2023-02-05T00:15:03.071Z,95.36
2023-02-05T00:16:03.321Z,95.31
2023-02-05T00:17:02.735Z,94.90
2023-02-05T00:18:02.507Z,94.28
2023-02-05T00:19:02.406Z,94.08
2023-02-05T00:20:02.655Z,94.08
2023-02-05T00:21:02.498Z,94.18
2023-02-05T00:22:02.976Z,94.70
2023-02-05T00:23:02.908Z,94.90
2023-02-05T00:24:03.022Z,94.90
2023-02-05T00:25:02.872Z,94.84
2023-02-05T00:26:02.738Z,95.15
2023-02-05T00:27:02.673Z,95.25
2023-02-05T00:28:02.659Z,95.21
2023-02-05T00:29:02.391Z,94.80
2023-02-05T00:30:02.584Z,94.95
2023-02-05T00:31:02.797Z,94.90
2023-02-05T00:32:02.280Z,94.95
2023-02-05T00:33:02.564Z,95.00
2023-02-05T00:34:02.615Z,94.59
2023-02-05T00:35:02.539Z,94.64
2023-02-05T00:36:02.444Z,94.84
2023-02-05T00:37:03.294Z,95.15
2023-02-05T00:38:03.167Z,95.40
2023-02-05T00:39:03.428Z,95.71
2023-02-05T00:40:03.283Z,95.71
2023-02-05T00:41:03.383Z,95.81
2023-02-05T00:42:02.780Z,96.33
2023-02-05T00:43:02.424Z,96.33
2023-02-05T00:44:02.499Z,96.23
2023-02-05T00:45:02.453Z,96.44
2023-02-05T00:46:02.945Z,96.33
2023-02-05T00:47:02.553Z,96.02
2023-02-05T00:48:03.144Z,96.02
2023-02-05T00:49:02.755Z,96.02
2023-02-05T00:50:02.749Z,96.02
2023-02-05T00:51:02.533Z,95.81
2023-02-05T00:52:03.271Z,95.81
2023-02-05T00:53:03.440Z,95.92
2023-02-05T00:54:03.173Z,96.02
2023-02-05T00:55:03.134Z,96.44
2023-02-05T00:56:03.250Z,96.44
2023-02-05T00:57:02.934Z,96.69
2023-02-05T00:58:02.532Z,96.99
2023-02-05T00:59:02.437Z,97.30
2023-02-05T01:00:02.915Z,97.51
2023-02-05T01:01:02.831Z,97.61
2023-02-05T01:02:02.467Z,97.92
2023-02-05T01:03:02.415Z,97.82
2023-02-05T01:04:01.840Z,97.82
2023-02-05T01:05:02.364Z,97.77
2023-02-05T01:06:02.080Z,97.88
2023-02-05T01:07:02.323Z,97.98
2023-02-05T01:08:02.650Z,97.67
2023-02-05T01:09:02.577Z,97.88
2023-02-05T01:10:02.561Z,97.98
2023-02-05T01:11:02.601Z,97.88
2023-02-05T01:12:03.193Z,97.67
2023-02-05T01:13:02.744Z,97.56
2023-02-05T01:14:02.686Z,97.77
2023-02-05T01:15:03.054Z,97.98
2023-02-05T01:16:02.995Z,98.08
2023-02-05T01:17:02.801Z,97.98
2023-02-05T01:18:02.620Z,97.98
2023-02-05T01:19:02.572Z,97.98
2023-02-05T01:20:02.544Z,97.88
2023-02-05T01:21:02.887Z,98.19
2023-02-05T01:22:02.424Z,98.08
2023-02-05T01:23:02.848Z,97.94
2023-02-05T01:24:02.713Z,97.73
2023-02-05T01:25:02.395Z,97.63
2023-02-05T01:26:02.813Z,97.31
2023-02-05T01:27:02.389Z,97.11
2023-02-05T01:28:02.202Z,97.26
2023-02-05T01:29:02.234Z,97.16
2023-02-05T01:30:02.538Z,97.26
2023-02-05T01:31:01.900Z,97.56
2023-02-05T01:32:02.095Z,97.67
2023-02-05T01:33:02.606Z,98.08
2023-02-05T01:34:02.576Z,98.23
2023-02-05T01:35:02.527Z,98.23
2023-02-05T01:36:02.028Z,98.44
2023-02-05T01:37:02.430Z,98.44
2023-02-05T01:38:02.767Z,98.65
2023-02-05T01:39:02.446Z,98.54
2023-02-05T01:40:03.049Z,98.75
2023-02-05T01:41:02.939Z,98.75
2023-02-05T01:42:02.386Z,98.75
2023-02-05T01:43:02.414Z,98.85
2023-02-05T01:44:02.179Z,98.96
2023-02-05T01:45:02.375Z,99.06
2023-02-05T01:46:02.424Z,99.26
2023-02-05T01:47:01.798Z,99.37
2023-02-05T01:48:02.113Z,99.26
2023-02-05T01:49:02.135Z,99.57
2023-02-05T01:50:02.167Z,99.57
2023-02-05T01:51:02.047Z,99.47
2023-02-05T01:52:02.290Z,99.57
2023-02-05T01:53:02.542Z,99.93
2023-02-05T01:54:02.511Z,99.99
2023-02-05T01:55:02.409Z,99.99
2023-02-05T01:56:02.223Z,99.99
2023-02-05T01:57:02.216Z,99.99
2023-02-05T01:58:02.025Z,99.99
2023-02-05T01:59:01.865Z,99.99
2023-02-05T02:00:01.794Z,99.99
2023-02-05T02:01:01.835Z,99.99
2023-02-05T02:02:02.215Z,99.99
2023-02-05T02:03:02.872Z,99.99
2023-02-05T02:04:02.258Z,99.99
2023-02-05T02:05:02.329Z,99.99
2023-02-05T02:06:02.580Z,99.99
2023-02-05T02:07:02.585Z,99.99
2023-02-05T02:08:02.634Z,99.99
2023-02-05T02:09:02.997Z,99.99
2023-02-05T02:10:02.955Z,99.99
2023-02-05T02:11:02.981Z,99.99
2023-02-05T02:12:02.726Z,99.99
2023-02-05T02:13:02.623Z,99.99
2023-02-05T02:14:02.627Z,99.99
2023-02-05T02:15:03.040Z,99.99
2023-02-05T02:16:02.703Z,99.99
2023-02-05T02:17:02.443Z,99.99
2023-02-05T02:18:02.514Z,99.99
2023-02-05T02:19:02.449Z,99.99
2023-02-05T02:20:02.540Z,99.99
2023-02-05T02:21:01.987Z,99.99
2023-02-05T02:22:02.356Z,99.99
2023-02-05T02:23:02.189Z,99.99
2023-02-05T02:24:02.802Z,99.99
2023-02-05T02:25:02.494Z,99.99
2023-02-05T02:26:02.220Z,99.99
2023-02-05T02:27:02.179Z,99.99
2023-02-05T02:28:01.944Z,99.99
2023-02-05T02:29:01.933Z,99.99
2023-02-05T02:30:01.925Z,99.99
2023-02-05T02:31:02.260Z,99.99
2023-02-05T02:32:02.724Z,99.99
2023-02-05T02:33:02.797Z,99.99
2023-02-05T02:34:02.681Z,99.99
2023-02-05T02:35:02.213Z,99.99
2023-02-05T02:36:02.407Z,99.99
2023-02-05T02:37:02.322Z,99.99
2023-02-05T02:38:01.895Z,99.99
2023-02-05T02:39:02.327Z,99.99
2023-02-05T02:40:02.065Z,99.99
2023-02-05T02:41:01.824Z,99.99
2023-02-05T02:42:02.176Z,99.99
2023-02-05T02:43:02.613Z,99.99
2023-02-05T02:44:02.561Z,99.99
2023-02-05T02:45:02.708Z,99.99
2023-02-05T02:46:02.412Z,99.99
2023-02-05T02:47:01.933Z,99.99
2023-02-05T02:48:01.692Z,99.99
2023-02-05T02:49:01.766Z,99.99
2023-02-05T02:50:01.451Z,99.99
2023-02-05T02:51:02.046Z,99.99
2023-02-05T02:52:02.092Z,99.88
2023-02-05T02:53:01.661Z,99.78
2023-02-05T02:54:01.429Z,99.68
2023-02-05T02:55:01.804Z,99.88
2023-02-05T02:56:01.554Z,99.88
2023-02-05T02:57:02.322Z,99.88
2023-02-05T02:58:02.337Z,99.99
2023-02-05T02:59:02.096Z,99.99
2023-02-05T03:00:02.448Z,99.99
2023-02-05T03:01:01.945Z,99.99
2023-02-05T03:02:02.769Z,99.99
2023-02-05T03:03:02.761Z,99.99
2023-02-05T03:04:02.511Z,99.99
2023-02-05T03:05:02.731Z,99.99
2023-02-05T03:06:02.899Z,99.99
2023-02-05T03:07:03.149Z,99.99
2023-02-05T03:08:02.759Z,99.88
2023-02-05T03:09:02.685Z,99.99
2023-02-05T03:10:02.826Z,99.99
2023-02-05T03:11:02.742Z,99.99
2023-02-05T03:12:02.492Z,99.94
2023-02-05T03:13:02.876Z,99.84
2023-02-05T03:14:02.864Z,99.63
2023-02-05T03:15:02.794Z,99.63
2023-02-05T03:16:02.389Z,99.94
2023-02-05T03:17:02.420Z,99.94
2023-02-05T03:18:02.941Z,99.99
2023-02-05T03:19:02.426Z,99.73
2023-02-05T03:20:02.810Z,99.48
2023-02-05T03:21:02.355Z,98.97
2023-02-05T03:22:03.190Z,98.97
2023-02-05T03:23:02.723Z,98.86
2023-02-05T03:24:02.737Z,98.76
2023-02-05T03:25:02.724Z,99.17
2023-02-05T03:26:03.244Z,98.76
2023-02-05T03:27:02.965Z,98.66
2023-02-05T03:28:03.216Z,98.76
2023-02-05T03:29:03.336Z,98.66
2023-02-05T03:30:03.179Z,98.76
2023-02-05T03:31:03.532Z,98.66
2023-02-05T03:32:03.030Z,98.45
2023-02-05T03:33:03.158Z,98.86
2023-02-05T03:34:03.386Z,99.01
2023-02-05T03:35:03.420Z,99.52
2023-02-05T03:36:03.173Z,99.38
2023-02-05T03:37:03.641Z,98.91
2023-02-05T03:38:03.251Z,99.11
2023-02-05T03:39:03.390Z,99.22
2023-02-05T03:40:03.214Z,99.22
2023-02-05T03:41:03.618Z,99.11
2023-02-05T03:42:02.748Z,99.22
2023-02-05T03:43:02.821Z,99.52
2023-02-05T03:44:02.651Z,99.84
2023-02-05T03:45:03.040Z,99.99
2023-02-05T03:46:02.855Z,99.99
2023-02-05T03:47:03.092Z,99.63
2023-02-05T03:48:03.400Z,99.58
2023-02-05T03:49:03.131Z,99.17
2023-02-05T03:50:03.382Z,99.27
2023-02-05T03:51:03.380Z,99.38
2023-02-05T03:52:02.634Z,99.43
2023-02-05T03:53:02.296Z,99.43
2023-02-05T03:54:02.216Z,99.73
2023-02-05T03:55:02.546Z,99.99
2023-02-05T03:56:02.155Z,99.99
2023-02-05T03:57:02.828Z,99.90
2023-02-05T03:58:02.881Z,99.43
2023-02-05T03:59:03.011Z,99.94
2023-02-05T04:00:02.841Z,99.94
2023-02-05T04:01:03.009Z,99.99
2023-02-05T04:02:02.738Z,99.99
2023-02-05T04:03:02.156Z,99.58
2023-02-05T04:04:02.335Z,98.97
2023-02-05T04:05:02.522Z,98.41
2023-02-05T04:06:02.632Z,98.45
2023-02-05T04:07:02.781Z,98.86
2023-02-05T04:08:02.593Z,98.76
2023-02-05T04:09:02.533Z,98.55
2023-02-05T04:10:02.761Z,98.86
2023-02-05T04:11:02.318Z,98.86
2023-02-05T04:12:02.968Z,99.07
2023-02-05T04:13:03.052Z,99.27
2023-02-05T04:14:03.095Z,99.58
2023-02-05T04:15:02.544Z,99.79
2023-02-05T04:16:02.809Z,99.99
2023-02-05T04:17:02.257Z,99.52
2023-02-05T04:18:01.989Z,99.52
2023-02-05T04:19:02.093Z,99.99
2023-02-05T04:20:02.202Z,99.99
2023-02-05T04:21:02.519Z,99.94
2023-02-05T04:22:02.608Z,99.99
2023-02-05T04:23:02.584Z,99.99
2023-02-05T04:24:03.097Z,99.99
2023-02-05T04:25:02.598Z,99.99
2023-02-05T04:26:02.601Z,99.99
2023-02-05T04:27:02.143Z,99.99
2023-02-05T04:28:02.380Z,99.99
2023-02-05T04:29:02.191Z,99.99
2023-02-05T04:30:02.054Z,99.99
2023-02-05T04:31:02.543Z,99.99
2023-02-05T04:32:02.632Z,99.99
2023-02-05T04:33:02.421Z,99.99
2023-02-05T04:34:02.618Z,99.99
2023-02-05T04:35:02.481Z,99.99
2023-02-05T04:36:02.586Z,99.99
2023-02-05T04:37:02.482Z,99.99
2023-02-05T04:38:02.605Z,99.99
2023-02-05T04:39:02.942Z,99.99
2023-02-05T04:40:02.878Z,99.99
2023-02-05T04:41:02.980Z,99.99
2023-02-05T04:42:02.278Z,99.99
2023-02-05T04:43:02.357Z,99.99
2023-02-05T04:44:02.182Z,99.99
2023-02-05T04:45:02.314Z,99.99
2023-02-05T04:46:02.149Z,99.99
2023-02-05T04:47:02.636Z,99.99
2023-02-05T04:48:02.250Z,99.73
2023-02-05T04:49:02.665Z,99.84
2023-02-05T04:50:02.433Z,99.99
2023-02-05T04:51:02.417Z,99.99
2023-02-05T04:52:01.914Z,99.99
2023-02-05T04:53:02.421Z,99.99
2023-02-05T04:54:01.927Z,99.99
2023-02-05T04:55:01.895Z,99.99
2023-02-05T04:56:02.097Z,99.99
2023-02-05T04:57:01.937Z,99.99
2023-02-05T04:58:01.803Z,99.84
2023-02-05T04:59:02.066Z,99.84
2023-02-05T05:00:02.050Z,99.63
2023-02-05T05:01:01.755Z,99.73
2023-02-05T05:02:02.962Z,99.84
2023-02-05T05:03:03.209Z,99.94
2023-02-05T05:04:03.352Z,99.43
2023-02-05T05:05:03.030Z,99.43
2023-02-05T05:06:02.796Z,99.52
2023-02-05T05:07:02.096Z,99.48
2023-02-05T05:08:02.050Z,99.27
2023-02-05T05:09:02.071Z,99.38
2023-02-05T05:10:01.955Z,99.17
2023-02-05T05:11:02.311Z,98.86
2023-02-05T05:12:02.816Z,98.76
2023-02-05T05:13:02.378Z,98.76
2023-02-05T05:14:02.377Z,98.76
2023-02-05T05:15:02.840Z,98.76
2023-02-05T05:16:02.603Z,98.55
2023-02-05T05:17:03.294Z,98.76
2023-02-05T05:18:03.189Z,98.61
2023-02-05T05:19:03.275Z,98.66
2023-02-05T05:20:02.889Z,98.66
2023-02-05T05:21:02.676Z,98.82
2023-02-05T05:22:02.803Z,98.61
2023-02-05T05:23:02.695Z,98.61
2023-02-05T05:24:02.827Z,98.50
2023-02-05T05:25:02.603Z,98.30
2023-02-05T05:26:02.658Z,98.10
2023-02-05T05:27:03.264Z,98.10
2023-02-05T05:28:02.894Z,98.20
2023-02-05T05:29:02.793Z,98.45
2023-02-05T05:30:03.119Z,98.55
2023-02-05T05:31:03.091Z,99.11
2023-02-05T05:32:02.240Z,99.79
2023-02-05T05:33:02.659Z,99.27
2023-02-05T05:34:02.914Z,99.48
2023-02-05T05:35:02.673Z,98.86
2023-02-05T05:36:02.869Z,98.66
2023-02-05T05:37:02.754Z,98.86
2023-02-05T05:38:02.417Z,98.86
2023-02-05T05:39:03.013Z,99.07
2023-02-05T05:40:02.504Z,99.07
2023-02-05T05:41:02.902Z,99.13
2023-02-05T05:42:03.017Z,99.13
2023-02-05T05:43:02.505Z,98.82
2023-02-05T05:44:02.752Z,98.55
2023-02-05T05:45:02.878Z,98.55
2023-02-05T05:46:03.001Z,98.97
2023-02-05T05:47:02.085Z,99.27
2023-02-05T05:48:01.899Z,99.38
2023-02-05T05:49:02.192Z,99.48
2023-02-05T05:50:02.053Z,99.27
2023-02-05T05:51:01.911Z,99.58
2023-02-05T05:52:02.470Z,99.38
2023-02-05T05:53:02.270Z,99.58
2023-02-05T05:54:02.424Z,99.58
2023-02-05T05:55:02.506Z,99.38
2023-02-05T05:56:02.085Z,99.17
2023-02-05T05:57:02.601Z,98.97
2023-02-05T05:58:03.008Z,99.27
2023-02-05T05:59:03.165Z,99.48
2023-02-05T06:00:03.092Z,99.73
2023-02-05T06:01:02.921Z,99.99
2023-02-05T06:02:01.827Z,99.99
2023-02-05T06:03:01.587Z,99.99
2023-02-05T06:04:04.151Z,99.90
2023-02-05T06:05:02.087Z,99.94
2023-02-05T06:06:01.929Z,99.99
2023-02-05T06:07:02.323Z,99.99
2023-02-05T06:08:02.392Z,99.99
2023-02-05T06:09:08.475Z,99.99
2023-02-05T06:10:02.349Z,99.99
2023-02-05T06:11:02.449Z,99.99
2023-02-05T06:12:02.262Z,99.99
2023-02-05T06:13:02.015Z,99.99
2023-02-05T06:14:01.578Z,99.99
2023-02-05T06:15:02.155Z,99.90
2023-02-05T06:16:01.556Z,99.73
2023-02-05T06:17:02.285Z,99.79
2023-02-05T06:18:01.938Z,99.73
2023-02-05T06:19:01.902Z,99.73
2023-02-05T06:20:01.853Z,99.94
2023-02-05T06:21:01.735Z,99.73
2023-02-05T06:22:01.999Z,99.94
2023-02-05T06:23:02.050Z,99.99
2023-02-05T06:24:02.156Z,99.99
2023-02-05T06:25:01.944Z,99.90
2023-02-05T06:26:02.193Z,99.69
2023-02-05T06:27:02.627Z,99.33
2023-02-05T06:28:02.584Z,99.13
2023-02-05T06:29:02.442Z,98.82
2023-02-05T06:30:02.889Z,98.71
2023-02-05T06:31:03.034Z,98.82
2023-02-05T06:32:01.622Z,98.10
2023-02-05T06:33:01.611Z,97.78
2023-02-05T06:34:01.454Z,97.85
2023-02-05T06:35:02.012Z,97.74
2023-02-05T06:36:01.488Z,97.23
2023-02-05T06:37:02.606Z,96.81
2023-02-05T06:38:02.096Z,96.71
2023-02-05T06:39:02.342Z,96.81
2023-02-05T06:40:01.997Z,97.64
2023-02-05T06:41:02.034Z,98.15
2023-02-05T06:42:01.770Z,98.46
2023-02-05T06:43:01.924Z,98.25
2023-02-05T06:44:01.745Z,98.46
2023-02-05T06:45:02.002Z,98.25
2023-02-05T06:46:01.991Z,97.85
2023-02-05T06:47:02.443Z,97.23
2023-02-05T06:48:02.650Z,96.92
2023-02-05T06:49:02.728Z,96.92
2023-02-05T06:50:02.738Z,97.02
2023-02-05T06:51:02.666Z,97.02
2023-02-05T06:52:02.451Z,97.13
2023-02-05T06:53:02.801Z,97.43
2023-02-05T06:54:02.803Z,97.74
2023-02-05T06:55:02.752Z,98.25
2023-02-05T06:56:02.353Z,98.36
2023-02-05T06:57:01.986Z,98.42
2023-02-05T06:58:01.676Z,97.28
2023-02-05T06:59:01.754Z,97.08
2023-02-05T07:00:01.688Z,96.88
2023-02-05T07:01:01.660Z,96.77
2023-02-05T07:02:02.165Z,96.88
2023-02-05T07:03:02.058Z,97.28
2023-02-05T07:04:02.360Z,97.60
2023-02-05T07:05:02.122Z,97.28
2023-02-05T07:06:02.082Z,97.08
2023-02-05T07:07:02.715Z,97.69
2023-02-05T07:08:02.846Z,97.90
2023-02-05T07:09:02.830Z,97.18
2023-02-05T07:10:02.305Z,96.88
2023-02-05T07:11:02.904Z,97.49
2023-02-05T07:12:02.431Z,97.80
2023-02-05T07:13:04.413Z,97.60
2023-02-05T07:14:01.996Z,97.39
2023-02-05T07:15:02.145Z,97.74
2023-02-05T07:16:02.552Z,98.15
2023-02-05T07:17:02.198Z,98.36
2023-02-05T07:18:02.086Z,97.74
2023-02-05T07:19:01.968Z,98.46
2023-02-05T07:20:01.795Z,98.46
2023-02-05T07:21:01.913Z,98.57
2023-02-05T07:22:01.982Z,98.77
2023-02-05T07:23:02.474Z,98.88
2023-02-05T07:24:01.914Z,98.77
2023-02-05T07:25:04.434Z,98.77
2023-02-05T07:26:02.296Z,98.88
2023-02-05T07:27:02.894Z,98.62
2023-02-05T07:28:02.776Z,98.32
2023-02-05T07:29:02.988Z,97.90
2023-02-05T07:30:02.821Z,97.60
2023-02-05T07:31:02.991Z,98.00
2023-02-05T07:32:02.580Z,98.21
2023-02-05T07:33:02.218Z,98.21
2023-02-05T07:34:02.188Z,98.21
2023-02-05T07:35:02.147Z,98.11
2023-02-05T07:36:02.054Z,98.27
2023-02-05T07:37:02.076Z,98.16
2023-02-05T07:38:01.705Z,97.34
2023-02-05T07:39:01.881Z,97.75
2023-02-05T07:40:02.176Z,97.86
2023-02-05T07:41:02.121Z,97.86
2023-02-05T07:42:02.292Z,97.65
2023-02-05T07:43:02.199Z,97.65
2023-02-05T07:44:02.271Z,98.06
2023-02-05T07:45:01.703Z,98.16
2023-02-05T07:46:01.684Z,98.52
2023-02-05T07:47:01.784Z,98.52
2023-02-05T07:48:01.974Z,98.58
2023-02-05T07:49:01.983Z,97.96
2023-02-05T07:50:02.334Z,97.96
2023-02-05T07:51:02.398Z,98.16
2023-02-05T07:52:02.750Z,97.86
2023-02-05T07:53:02.476Z,96.99
2023-02-05T07:54:02.741Z,97.19
2023-02-05T07:55:02.144Z,96.99
2023-02-05T07:56:02.062Z,96.68
2023-02-05T07:57:01.362Z,96.99
2023-02-05T07:58:01.322Z,96.47
2023-02-05T07:59:01.988Z,96.17
2023-02-05T08:00:01.617Z,96.06
2023-02-05T08:01:01.753Z,95.96
2023-02-05T08:02:02.710Z,96.17
2023-02-05T08:03:02.689Z,96.68
2023-02-05T08:04:02.659Z,97.19
2023-02-05T08:05:02.876Z,97.40
2023-02-05T08:06:02.402Z,97.61
2023-02-05T08:07:02.125Z,97.09
2023-02-05T08:08:01.993Z,97.19
2023-02-05T08:09:01.478Z,97.50
2023-02-05T08:10:01.494Z,97.81
2023-02-05T08:11:01.542Z,97.91
2023-02-05T08:12:02.047Z,98.27
2023-02-05T08:13:02.294Z,98.43
2023-02-05T08:14:02.261Z,98.33
2023-02-05T08:15:02.634Z,97.61
2023-02-05T08:16:02.124Z,97.09
2023-02-05T08:17:02.186Z,96.78
2023-02-05T08:18:02.460Z,96.89
2023-02-05T08:19:02.371Z,97.19
2023-02-05T08:20:02.417Z,97.30
2023-02-05T08:21:02.381Z,97.05
2023-02-05T08:22:01.739Z,96.99
2023-02-05T08:23:01.657Z,96.94
2023-02-05T08:24:02.171Z,96.94
2023-02-05T08:25:02.154Z,96.94
2023-02-05T08:26:01.853Z,97.25
2023-02-05T08:27:02.180Z,97.45
2023-02-05T08:28:02.272Z,97.56
2023-02-05T08:29:02.727Z,97.36
2023-02-05T08:30:02.603Z,97.61
2023-02-05T08:31:02.397Z,98.43
2023-02-05T08:32:01.611Z,98.18
2023-02-05T08:33:01.794Z,97.87
2023-02-05T08:34:01.564Z,97.56
2023-02-05T08:35:01.766Z,98.22
2023-02-05T08:36:01.926Z,98.84
2023-02-05T08:37:02.263Z,99.15
2023-02-05T08:38:02.187Z,99.87
2023-02-05T08:39:02.562Z,99.25
2023-02-05T08:40:02.737Z,99.66
2023-02-05T08:41:02.493Z,99.51
2023-02-05T08:42:01.802Z,99.21
2023-02-05T08:43:01.903Z,99.00
2023-02-05T08:44:02.146Z,99.00
2023-02-05T08:45:01.951Z,98.90
2023-02-05T08:46:02.080Z,99.21
2023-02-05T08:47:01.856Z,99.21
2023-02-05T08:48:01.696Z,98.54
2023-02-05T08:49:02.101Z,98.13
2023-02-05T08:50:02.294Z,98.03
2023-02-05T08:51:01.714Z,98.24
2023-02-05T08:52:02.247Z,98.24
2023-02-05T08:53:02.495Z,98.03
2023-02-05T08:54:02.479Z,98.03
2023-02-05T08:55:02.382Z,97.92
2023-02-05T08:56:02.435Z,97.82
2023-02-05T08:57:02.064Z,97.82
2023-02-05T08:58:02.391Z,98.03
2023-02-05T08:59:02.080Z,98.13
2023-02-05T09:00:02.078Z,98.33
2023-02-05T09:01:01.982Z,98.54
2023-02-05T09:02:02.233Z,99.21
2023-02-05T09:03:02.520Z,99.72
2023-02-05T09:04:02.420Z,99.99
2023-02-05T09:05:08.771Z,99.99
2023-02-05T09:06:02.343Z,99.99
2023-02-05T09:07:03.334Z,99.99
2023-02-05T09:08:02.465Z,99.99
2023-02-05T09:09:02.932Z,99.99
2023-02-05T09:10:02.978Z,99.99
2023-02-05T09:11:02.756Z,99.99
2023-02-05T09:12:02.882Z,99.99
2023-02-05T09:13:02.732Z,99.99
2023-02-05T09:14:02.748Z,99.99
2023-02-05T09:15:03.038Z,99.99
2023-02-05T09:16:03.152Z,99.99
2023-02-05T09:17:02.332Z,99.99
2023-02-05T09:18:02.438Z,99.99
2023-02-05T09:19:02.511Z,99.99
2023-02-05T09:20:02.518Z,99.99
2023-02-05T09:21:02.162Z,99.99
2023-02-05T09:22:02.682Z,99.99
2023-02-05T09:23:02.575Z,99.99
2023-02-05T09:24:02.538Z,99.99
2023-02-05T09:25:03.149Z,99.99
2023-02-05T09:26:02.890Z,99.99
2023-02-05T09:27:02.249Z,99.99
2023-02-05T09:28:02.290Z,99.99
2023-02-05T09:29:02.203Z,99.99
2023-02-05T09:30:02.089Z,99.99
2023-02-05T09:31:01.970Z,99.99
2023-02-05T09:32:02.757Z,99.99
2023-02-05T09:33:02.991Z,99.99
2023-02-05T09:34:02.481Z,99.99
2023-02-05T09:35:02.459Z,99.99
2023-02-05T09:36:02.636Z,99.99
2023-02-05T09:37:02.256Z,99.99
2023-02-05T09:38:02.415Z,99.99
2023-02-05T09:39:14.101Z,99.99
2023-02-05T09:41:02.074Z,99.99
2023-02-05T09:42:02.691Z,99.99
2023-02-05T09:43:02.939Z,99.99
2023-02-05T09:44:02.914Z,99.99
2023-02-05T09:45:02.713Z,99.99
2023-02-05T09:46:02.379Z,99.99
2023-02-05T09:47:03.083Z,99.99
2023-02-05T09:48:02.853Z,99.99
2023-02-05T09:49:03.137Z,99.99
2023-02-05T09:50:02.976Z,99.99
2023-02-05T09:51:03.300Z,99.99
2023-02-05T09:52:02.370Z,99.99
2023-02-05T09:53:02.315Z,99.99
2023-02-05T09:54:02.362Z,99.99
2023-02-05T09:55:02.095Z,99.99
2023-02-05T09:56:02.304Z,99.99
2023-02-05T09:57:02.959Z,99.99
2023-02-05T09:58:02.985Z,99.99
2023-02-05T09:59:02.537Z,99.99
2023-02-05T10:00:02.599Z,99.99
2023-02-05T10:01:02.744Z,99.99
2023-02-05T10:02:05.819Z,99.99
2023-02-05T10:03:03.089Z,99.99
2023-02-05T10:04:03.059Z,99.99
2023-02-05T10:05:03.352Z,99.99
2023-02-05T10:06:03.065Z,99.99
2023-02-05T10:07:03.723Z,99.99
2023-02-05T10:08:03.560Z,99.99
2023-02-05T10:09:03.449Z,99.99
2023-02-05T10:10:03.494Z,99.99
2023-02-05T10:11:03.460Z,99.99
2023-02-05T10:12:03.166Z,99.99
2023-02-05T10:13:03.001Z,99.99
2023-02-05T10:14:03.192Z,99.99
2023-02-05T10:15:03.253Z,99.99
2023-02-05T10:16:03.060Z,99.99
2023-02-05T10:17:03.533Z,99.99
2023-02-05T10:18:03.371Z,99.99
2023-02-05T10:19:03.299Z,99.99
2023-02-05T10:20:03.243Z,99.99
2023-02-05T10:21:03.095Z,99.99
2023-02-05T10:22:03.210Z,99.99
2023-02-05T10:23:02.904Z,99.99
2023-02-05T10:24:02.913Z,99.99
2023-02-05T10:25:02.816Z,99.99
2023-02-05T10:26:02.664Z,99.99
2023-02-05T10:27:03.225Z,99.99
2023-02-05T10:28:03.043Z,99.99
2023-02-05T10:29:02.849Z,99.99
2023-02-05T10:30:02.804Z,99.99
2023-02-05T10:31:03.040Z,99.99
2023-02-05T10:32:03.414Z,99.99
2023-02-05T10:33:02.976Z,99.99
2023-02-05T10:34:03.502Z,99.99
2023-02-05T10:35:03.025Z,99.99
2023-02-05T10:36:02.959Z,99.99
2023-02-05T10:37:03.430Z,99.99
2023-02-05T10:38:04.701Z,99.99
2023-02-05T10:39:03.392Z,99.99
2023-02-05T10:40:03.361Z,99.99
2023-02-05T10:41:03.252Z,99.99
2023-02-05T10:42:03.142Z,99.99
2023-02-05T10:43:02.538Z,99.99
2023-02-05T10:44:03.167Z,99.99
2023-02-05T10:45:02.823Z,99.99
2023-02-05T10:46:02.795Z,99.99
2023-02-05T10:47:03.236Z,99.99
2023-02-05T10:48:02.828Z,99.99
2023-02-05T10:49:02.771Z,99.99
2023-02-05T10:50:02.621Z,99.99
2023-02-05T10:51:03.227Z,99.99
2023-02-05T10:52:03.604Z,99.99
2023-02-05T10:53:03.480Z,99.99
2023-02-05T10:54:03.416Z,99.99
2023-02-05T10:55:03.488Z,99.99
2023-02-05T10:56:03.266Z,99.99
2023-02-05T10:57:02.313Z,99.99
2023-02-05T10:58:02.910Z,99.99
2023-02-05T10:59:02.785Z,99.99
2023-02-05T11:00:02.991Z,99.99
2023-02-05T11:01:02.773Z,99.99
2023-02-05T11:02:02.638Z,99.99
2023-02-05T11:03:03.167Z,99.99
2023-02-05T11:04:03.161Z,99.99
2023-02-05T11:05:03.053Z,99.99
2023-02-05T11:06:02.938Z,99.99
2023-02-05T11:07:02.740Z,99.99
2023-02-05T11:08:03.243Z,99.99
2023-02-05T11:09:03.140Z,99.99
2023-02-05T11:10:02.959Z,99.99
2023-02-05T11:11:02.819Z,99.99
2023-02-05T11:12:03.018Z,99.99
2023-02-05T11:13:02.536Z,99.99
2023-02-05T11:14:02.352Z,99.99
2023-02-05T11:15:02.255Z,99.99
2023-02-05T11:16:02.163Z,99.99
2023-02-05T11:17:02.069Z,99.99
2023-02-05T11:18:02.876Z,99.99
2023-02-05T11:19:02.428Z,99.99
2023-02-05T11:20:02.346Z,99.99
2023-02-05T11:21:02.759Z,99.99
2023-02-05T11:22:02.425Z,99.99
2023-02-05T11:23:03.040Z,99.99
2023-02-05T11:24:03.112Z,99.99
2023-02-05T11:25:03.049Z,99.99
2023-02-05T11:26:02.927Z,99.99
2023-02-05T11:27:03.090Z,99.99
2023-02-05T11:28:02.786Z,99.99
2023-02-05T11:29:02.884Z,99.99
2023-02-05T11:30:02.447Z,99.99
2023-02-05T11:31:02.490Z,99.99
2023-02-05T11:32:02.439Z,99.99
2023-02-05T11:33:02.547Z,99.99
2023-02-05T11:34:01.984Z,99.99
2023-02-05T11:35:02.590Z,99.99
2023-02-05T11:36:01.970Z,99.99
2023-02-05T11:37:02.318Z,99.99
2023-02-05T11:38:02.422Z,99.99
2023-02-05T11:39:02.031Z,99.99
2023-02-05T11:40:02.585Z,99.99
2023-02-05T11:41:02.517Z,99.99
2023-02-05T11:42:02.216Z,99.99
2023-02-05T11:43:02.688Z,99.99
2023-02-05T11:44:02.798Z,99.99
2023-02-05T11:45:02.691Z,99.99
2023-02-05T11:46:02.900Z,99.99
2023-02-05T11:47:02.805Z,99.99
2023-02-05T11:48:02.545Z,99.99
2023-02-05T11:49:02.537Z,99.99
2023-02-05T11:50:02.496Z,99.99
2023-02-05T11:51:02.400Z,99.99
2023-02-05T11:52:02.767Z,99.99
2023-02-05T11:53:02.361Z,99.99
2023-02-05T11:54:02.234Z,99.99
2023-02-05T11:55:02.119Z,99.99
2023-02-05T11:56:02.079Z,99.99
2023-02-05T11:57:02.379Z,99.99
2023-02-05T11:58:02.805Z,99.99
2023-02-05T11:59:02.728Z,99.99
2023-02-05T12:00:02.680Z,99.99
2023-02-05T12:01:02.403Z,99.99
2023-02-05T12:02:02.919Z,99.99
2023-02-05T12:03:02.832Z,99.99
2023-02-05T12:04:02.738Z,99.99
2023-02-05T12:05:02.643Z,99.99
2023-02-05T12:06:02.724Z,99.99
2023-02-05T12:07:02.613Z,99.99
2023-02-05T12:08:02.361Z,99.99
2023-02-05T12:09:02.447Z,99.99
2023-02-05T12:10:02.064Z,99.99
2023-02-05T12:11:02.004Z,99.99
2023-02-05T12:12:02.130Z,99.99
2023-02-05T12:13:02.653Z,99.99
2023-02-05T12:14:02.734Z,99.99
2023-02-05T12:15:02.694Z,99.99
2023-02-05T12:16:02.460Z,99.99
2023-02-05T12:17:02.426Z,99.99
2023-02-05T12:18:01.729Z,99.99
2023-02-05T12:19:01.603Z,99.99
2023-02-05T12:20:02.283Z,99.99
2023-02-05T12:21:02.091Z,99.99
2023-02-05T12:22:02.103Z,99.99
2023-02-05T12:23:02.638Z,99.99
2023-02-05T12:24:02.722Z,99.99
2023-02-05T12:25:02.732Z,99.99
2023-02-05T12:26:02.182Z,99.99
2023-02-05T12:27:02.745Z,99.99
2023-02-05T12:28:02.535Z,99.99
2023-02-05T12:29:02.136Z,99.99
2023-02-05T12:30:02.543Z,99.99
2023-02-05T12:31:01.903Z,99.99
2023-02-05T12:32:02.292Z,99.99
2023-02-05T12:33:01.637Z,99.99
2023-02-05T12:34:01.430Z,99.99
2023-02-05T12:35:01.505Z,99.99
2023-02-05T12:36:01.944Z,99.99
2023-02-05T12:37:01.690Z,99.99
2023-02-05T12:38:02.202Z,99.99
2023-02-05T12:39:03.329Z,99.99
2023-02-05T12:40:01.789Z,99.99
2023-02-05T12:41:02.292Z,99.99
2023-02-05T12:42:02.063Z,99.99
2023-02-05T12:43:02.734Z,99.99
2023-02-05T12:44:02.387Z,99.99
2023-02-05T12:45:02.690Z,99.99
2023-02-05T12:46:02.362Z,99.99
2023-02-05T12:47:02.494Z,99.99
2023-02-05T12:48:01.551Z,99.99
2023-02-05T12:49:01.544Z,99.99
2023-02-05T12:50:02.197Z,99.99
2023-02-05T12:51:02.061Z,99.99
2023-02-05T12:52:02.145Z,99.99
2023-02-05T12:53:02.385Z,99.99